createdAt,value
2023-02-27T00:02:46.250Z,74.00
2023-02-27T00:06:47.931Z,74.00
2023-02-27T00:10:50.585Z,74.73
2023-02-27T00:14:52.041Z,74.91
2023-02-27T00:18:53.582Z,74.56
2023-02-27T00:22:55.118Z,74.81
2023-02-27T00:26:56.649Z,74.69
2023-02-27T00:30:58.470Z,75.78
2023-02-27T00:35:00.122Z,75.66
2023-02-27T00:39:01.673Z,75.35
2023-02-27T00:43:03.775Z,75.32
2023-02-27T00:47:05.405Z,75.34
2023-02-27T00:51:07.328Z,75.71
2023-02-27T00:55:09.607Z,76.00
2023-02-27T00:59:11.126Z,75.83
2023-02-27T01:03:12.718Z,75.48
2023-02-27T01:07:14.397Z,75.95
2023-02-27T01:11:15.938Z,75.95
2023-02-27T01:15:17.828Z,76.06
2023-02-27T01:19:19.481Z,75.77
2023-02-27T01:23:22.116Z,76.06
2023-02-27T01:27:24.377Z,75.93
2023-02-27T01:31:26.258Z,76.21
2023-02-27T01:35:29.777Z,76.42
2023-02-27T01:39:32.994Z,76.75
2023-02-27T01:43:52.972Z,77.37
2023-02-27T01:48:01.019Z,76.89
2023-02-27T01:52:07.945Z,76.37
2023-02-27T01:56:36.302Z,77.26
2023-02-27T02:00:38.881Z,76.39
2023-02-27T02:04:41.157Z,77.22
2023-02-27T02:08:46.656Z,76.94
2023-02-27T02:12:48.596Z,77.80
2023-02-27T02:17:12.858Z,77.77
2023-02-27T02:21:32.718Z,76.99
2023-02-27T02:25:55.533Z,77.30
2023-02-27T02:30:12.798Z,77.07
2023-02-27T02:34:45.323Z,77.17
2023-02-27T02:38:51.671Z,77.07
2023-02-27T02:43:19.813Z,77.74
2023-02-27T02:47:36.522Z,77.52
2023-02-27T02:51:49.253Z,77.58
2023-02-27T02:55:53.405Z,78.04
2023-02-27T03:00:07.959Z,77.96
2023-02-27T03:04:15.834Z,77.88
2023-02-27T03:08:24.784Z,78.16
2023-02-27T03:12:27.952Z,78.63
2023-02-27T03:16:36.200Z,78.55
2023-02-27T03:20:43.035Z,78.81
2023-02-27T03:24:47.107Z,78.90
2023-02-27T03:29:06.489Z,78.70
2023-02-27T03:33:15.333Z,78.85
2023-02-27T03:37:41.901Z,78.69
2023-02-27T03:41:57.506Z,78.97
2023-02-27T03:46:24.746Z,79.13
2023-02-27T03:50:27.044Z,79.13
2023-02-27T03:54:34.687Z,79.05
2023-02-27T03:58:36.386Z,79.27
2023-02-27T04:02:39.844Z,79.43
2023-02-27T04:07:07.307Z,79.76
2023-02-27T04:11:30.500Z,79.38
2023-02-27T04:16:09.841Z,79.60
2023-02-27T04:20:27.092Z,79.98
2023-02-27T04:24:52.449Z,79.87
2023-02-27T04:28:59.769Z,79.92
2023-02-27T04:33:17.606Z,80.36
2023-02-27T04:37:26.160Z,80.26
2023-02-27T04:41:34.843Z,80.79
2023-02-27T04:45:41.334Z,80.71
2023-02-27T04:49:57.169Z,80.17
2023-02-27T04:54:01.632Z,80.91
2023-02-27T04:58:10.323Z,80.20
2023-02-27T05:02:25.020Z,80.23
2023-02-27T05:06:31.487Z,80.29
2023-02-27T05:10:58.760Z,80.61
2023-02-27T05:15:07.971Z,80.19
2023-02-27T05:19:10.638Z,80.41
2023-02-27T05:23:21.235Z,80.45
2023-02-27T05:27:33.534Z,80.65
2023-02-27T05:31:52.783Z,81.48
2023-02-27T05:36:06.285Z,81.27
2023-02-27T05:40:10.918Z,81.97
2023-02-27T05:44:19.238Z,81.86
2023-02-27T05:48:28.512Z,82.37
2023-02-27T05:52:31.872Z,82.95
2023-02-27T05:56:36.026Z,83.46
2023-02-27T06:00:46.734Z,83.47
2023-02-27T06:04:48.314Z,84.12
2023-02-27T06:08:50.499Z,83.19
2023-02-27T06:12:52.887Z,83.41
2023-02-27T06:16:54.650Z,83.81
2023-02-27T06:20:56.469Z,83.36
2023-02-27T06:24:58.154Z,83.33
2023-02-27T06:29:00.865Z,82.97
2023-02-27T06:33:02.982Z,82.48
2023-02-27T06:37:05.387Z,81.81
2023-02-27T06:41:07.539Z,82.02
2023-02-27T06:45:10.538Z,82.05
2023-02-27T06:49:14.582Z,82.06
2023-02-27T06:53:17.834Z,81.29
2023-02-27T06:57:21.848Z,81.57
2023-02-27T07:01:26.845Z,81.40
2023-02-27T07:05:28.481Z,81.35
2023-02-27T07:09:30.841Z,80.86
2023-02-27T07:13:35.816Z,80.68
2023-02-27T07:17:41.807Z,80.16
2023-02-27T07:21:43.374Z,80.19
2023-02-27T07:25:47.068Z,79.89
2023-02-27T07:29:50.316Z,79.22
2023-02-27T07:33:53.173Z,78.60
2023-02-27T07:37:54.807Z,78.15
2023-02-27T07:41:56.345Z,77.91
2023-02-27T07:45:58.756Z,77.12
2023-02-27T07:50:01.117Z,76.70
2023-02-27T07:54:03.791Z,75.79
2023-02-27T07:58:09.477Z,75.28
2023-02-27T08:02:13.591Z,74.21
2023-02-27T08:06:15.238Z,73.31
2023-02-27T08:10:17.563Z,72.87
2023-02-27T08:14:20.541Z,72.04
2023-02-27T08:18:24.775Z,70.98
2023-02-27T08:22:27.275Z,70.10
2023-02-27T08:26:31.318Z,70.31
2023-02-27T08:30:34.050Z,69.05
2023-02-27T08:34:36.728Z,66.95
2023-02-27T08:38:38.292Z,67.85
2023-02-27T08:42:40.383Z,66.61
2023-02-27T08:46:42.050Z,66.23
2023-02-27T08:50:46.737Z,63.47
2023-02-27T08:54:48.536Z,62.46
2023-02-27T08:58:50.681Z,63.32
2023-02-27T09:02:53.872Z,62.27
2023-02-27T09:06:57.439Z,61.18
2023-02-27T09:11:00.678Z,59.73
2023-02-27T09:15:03.674Z,59.70
2023-02-27T09:19:07.776Z,57.42
2023-02-27T09:23:09.579Z,57.29
2023-02-27T09:27:11.426Z,59.14
2023-02-27T09:31:13.456Z,57.98
2023-02-27T09:35:20.307Z,57.49
2023-02-27T09:39:22.065Z,57.00
2023-02-27T09:43:34.680Z,56.57
2023-02-27T09:47:42.691Z,54.98
2023-02-27T09:51:44.695Z,54.97
2023-02-27T09:55:48.663Z,55.62
2023-02-27T10:00:26.904Z,55.96
2023-02-27T10:04:39.959Z,56.08
2023-02-27T10:08:42.666Z,54.45
2023-02-27T10:13:03.647Z,52.79
2023-02-27T10:17:14.644Z,51.19
2023-02-27T10:21:22.706Z,53.28
2023-02-27T10:25:31.814Z,52.52
2023-02-27T10:29:37.801Z,51.77
2023-02-27T10:33:42.822Z,51.74
2023-02-27T10:37:50.731Z,51.63
2023-02-27T10:41:52.774Z,51.97
2023-02-27T10:45:56.711Z,52.23
2023-02-27T10:50:00.585Z,52.23
2023-02-27T10:54:20.862Z,51.29
2023-02-27T10:58:23.181Z,52.19
2023-02-27T11:02:37.086Z,51.50
2023-02-27T11:06:39.649Z,51.74
2023-02-27T11:10:56.605Z,50.50
2023-02-27T11:15:22.049Z,50.78
2023-02-27T11:19:31.899Z,48.26
2023-02-27T11:23:34.619Z,46.50
2023-02-27T11:27:36.290Z,47.28
2023-02-27T11:31:40.762Z,45.39
2023-02-27T11:35:51.110Z,44.91
2023-02-27T11:40:15.648Z,43.72
2023-02-27T11:44:25.754Z,43.14
2023-02-27T11:49:01.195Z,42.45
2023-02-27T11:53:24.085Z,42.34
2023-02-27T11:57:38.768Z,40.93
2023-02-27T12:02:05.618Z,40.26
2023-02-27T12:06:17.630Z,41.60
2023-02-27T12:10:27.982Z,39.96
2023-02-27T12:15:15.594Z,40.34
2023-02-27T12:19:39.718Z,39.22
2023-02-27T12:23:47.139Z,38.14
2023-02-27T12:28:04.607Z,37.53
2023-02-27T12:32:25.833Z,36.09
2023-02-27T12:36:30.579Z,36.18
2023-02-27T12:40:44.593Z,34.95
2023-02-27T12:44:55.587Z,35.78
2023-02-27T12:49:19.592Z,34.51
2023-02-27T12:53:53.301Z,34.04
2023-02-27T12:58:20.183Z,34.36
2023-02-27T13:02:39.270Z,34.16
2023-02-27T13:06:49.119Z,33.25
2023-02-27T13:11:14.302Z,33.45
2023-02-27T13:15:25.548Z,33.10
2023-02-27T13:19:33.625Z,33.89
2023-02-27T13:23:49.962Z,32.58
2023-02-27T13:28:02.766Z,34.05
2023-02-27T13:32:32.769Z,35.42
2023-02-27T13:36:48.490Z,36.12
2023-02-27T13:40:50.943Z,36.22
2023-02-27T13:44:58.645Z,36.77
2023-02-27T13:49:20.018Z,36.61
2023-02-27T13:53:30.609Z,37.42
2023-02-27T13:57:37.824Z,37.90
2023-02-27T14:01:41.645Z,38.57
2023-02-27T14:05:48.616Z,38.54
2023-02-27T14:09:59.904Z,39.70
2023-02-27T14:14:04.715Z,39.58
2023-02-27T14:18:48.371Z,40.09
2023-02-27T14:23:14.798Z,41.23
2023-02-27T14:27:19.316Z,40.97
2023-02-27T14:31:32.748Z,40.88
2023-02-27T14:35:36.047Z,41.16
2023-02-27T14:39:38.098Z,40.75
2023-02-27T14:43:45.966Z,39.71
2023-02-27T14:47:48.644Z,39.33
2023-02-27T14:51:50.831Z,38.31
2023-02-27T14:55:55.882Z,38.73
2023-02-27T14:59:58.595Z,38.92
2023-02-27T15:04:00.651Z,38.75
2023-02-27T15:08:06.357Z,38.70
2023-02-27T15:12:16.085Z,37.63
2023-02-27T15:16:23.645Z,37.31
2023-02-27T15:20:25.577Z,36.83
2023-02-27T15:24:49.577Z,37.44
2023-02-27T15:28:51.895Z,37.71
2023-02-27T15:32:55.791Z,37.10
2023-02-27T15:36:59.796Z,37.55
2023-02-27T15:41:03.355Z,37.44
2023-02-27T15:45:07.083Z,37.34
2023-02-27T15:49:16.551Z,37.24
2023-02-27T15:53:24.693Z,37.19
2023-02-27T15:57:26.903Z,37.45
2023-02-27T16:01:32.440Z,38.03
2023-02-27T16:05:36.785Z,37.66
2023-02-27T16:09:39.670Z,37.74
2023-02-27T16:13:41.896Z,38.44
2023-02-27T16:18:01.531Z,38.80
2023-02-27T16:22:22.350Z,39.18
2023-02-27T16:26:32.115Z,39.27
2023-02-27T16:30:33.837Z,39.73
2023-02-27T16:34:45.498Z,39.82
2023-02-27T16:38:47.641Z,40.46
2023-02-27T16:42:50.688Z,40.71
2023-02-27T16:46:54.362Z,40.84
2023-02-27T16:50:56.500Z,41.00
2023-02-27T16:54:59.506Z,41.30
2023-02-27T16:59:01.580Z,41.57
2023-02-27T17:03:03.513Z,41.59
2023-02-27T17:07:06.672Z,41.83
2023-02-27T17:11:09.361Z,42.14
2023-02-27T17:15:11.385Z,42.85
2023-02-27T17:19:16.957Z,43.00
2023-02-27T17:23:18.941Z,43.26
2023-02-27T17:27:20.797Z,43.35
2023-02-27T17:31:23.215Z,43.48
2023-02-27T17:35:25.747Z,43.58
2023-02-27T17:39:27.816Z,44.21
2023-02-27T17:43:30.471Z,43.92
2023-02-27T17:47:33.572Z,44.63
2023-02-27T17:51:35.641Z,44.13
2023-02-27T17:55:42.019Z,44.46
2023-02-27T17:59:43.728Z,44.30
2023-02-27T18:03:45.836Z,45.11
2023-02-27T18:07:48.207Z,45.42
2023-02-27T18:11:49.859Z,45.96
2023-02-27T18:15:52.140Z,46.40
2023-02-27T18:19:54.428Z,46.96
2023-02-27T18:23:57.508Z,46.73
2023-02-27T18:27:59.386Z,47.48
2023-02-27T18:32:00.988Z,47.35
2023-02-27T18:36:03.458Z,47.95
2023-02-27T18:40:06.791Z,48.16
2023-02-27T18:44:09.447Z,48.64
2023-02-27T18:48:11.185Z,49.13
2023-02-27T18:52:12.789Z,49.76
2023-02-27T18:56:17.023Z,49.94
2023-02-27T19:00:21.594Z,50.17
2023-02-27T19:04:25.542Z,50.97
2023-02-27T19:08:31.666Z,51.59
2023-02-27T19:12:35.413Z,52.35
2023-02-27T19:16:38.868Z,52.34
2023-02-27T19:20:40.632Z,52.63
2023-02-27T19:24:42.418Z,52.20
2023-02-27T19:28:44.051Z,52.77
2023-02-27T19:32:45.718Z,54.02
2023-02-27T19:36:48.412Z,53.30
2023-02-27T19:40:51.378Z,53.59
2023-02-27T19:44:54.385Z,54.47
2023-02-27T19:49:02.377Z,54.66
2023-02-27T19:53:04.582Z,54.72
2023-02-27T19:57:06.383Z,54.82
2023-02-27T20:01:09.841Z,55.38
2023-02-27T20:05:12.175Z,55.85
2023-02-27T20:09:17.134Z,56.22
2023-02-27T20:13:18.956Z,56.55
2023-02-27T20:17:20.509Z,56.54
2023-02-27T20:21:25.677Z,57.12
2023-02-27T20:25:29.473Z,57.66
2023-02-27T20:29:31.911Z,58.10
2023-02-27T20:33:33.584Z,58.13
2023-02-27T20:37:36.383Z,58.88
2023-02-27T20:41:38.286Z,58.75
2023-02-27T20:45:40.663Z,59.04
2023-02-27T20:49:42.285Z,59.95
2023-02-27T20:53:47.364Z,60.22
2023-02-27T20:57:49.348Z,61.16
2023-02-27T21:01:52.920Z,61.75
2023-02-27T21:06:00.089Z,61.34
2023-02-27T21:10:01.797Z,62.06
2023-02-27T21:14:12.634Z,63.01
2023-02-27T21:18:14.977Z,63.02
2023-02-27T21:22:17.162Z,62.58
2023-02-27T21:26:21.824Z,63.90
2023-02-27T21:30:23.393Z,62.94
2023-02-27T21:34:27.365Z,63.41
2023-02-27T21:38:29.498Z,62.66
2023-02-27T21:42:31.713Z,63.07
2023-02-27T21:46:34.985Z,64.78
2023-02-27T21:50:37.231Z,64.71
2023-02-27T21:54:39.887Z,64.63
2023-02-27T21:58:42.011Z,65.55
2023-02-27T22:02:43.813Z,65.66
2023-02-27T22:06:46.128Z,64.95
2023-02-27T22:10:47.729Z,64.93
2023-02-27T22:14:49.829Z,65.11
2023-02-27T22:18:51.843Z,65.84
2023-02-27T22:22:53.428Z,66.01
2023-02-27T22:26:55.586Z,66.66
2023-02-27T22:31:16.191Z,66.92
2023-02-27T22:35:17.939Z,66.66
2023-02-27T22:39:20.060Z,67.25
2023-02-27T22:43:21.840Z,68.06
2023-02-27T22:47:23.416Z,68.29
2023-02-27T22:51:27.862Z,68.32
2023-02-27T22:55:29.832Z,69.83
2023-02-27T22:59:31.370Z,69.08
2023-02-27T23:03:32.988Z,69.13
2023-02-27T23:07:35.191Z,69.94
2023-02-27T23:11:36.826Z,70.08
2023-02-27T23:15:39.116Z,69.73
2023-02-27T23:19:40.853Z,69.33
2023-02-27T23:23:43.081Z,71.17
2023-02-27T23:27:44.643Z,70.86
2023-02-27T23:31:46.705Z,71.91
2023-02-27T23:35:48.493Z,72.09
2023-02-27T23:39:50.089Z,72.40
2023-02-27T23:44:11.805Z,72.06
2023-02-27T23:48:13.717Z,72.16
2023-02-27T23:52:15.256Z,72.63
2023-02-27T23:56:18.347Z,73.90
